Slide Mountain Weather observations

Data are for 10 minute period ending at time listed.
 Day   Time   Solar   Ave.   Ave.  Ave.  Vector  Max.    Baro.  
  of    of     Rad.   Air    Rel.  Wind   Wind   Wind   Press.  
Year   Day            Temp.  Hum.  Speed  Dir.   Gust           
2016   (PST)  Kw/m2    F      %     mph   deg.    mph     mb.   
-----------------------------------------------------------------
 178   21:30   0.00   57.4    14   15.0   249     22.8    722.3 
 178   21:40   0.00   57.4    14   16.4   254     22.1    722.3 
 178   21:50   0.00   57.3    13    6.8   255     16.8    722.4 
 178   22:00   0.00   57.0    13    6.2   253     12.1    722.4 
 178   22:10   0.00   57.2    13   11.5   261     14.5    722.4 
 178   22:20   0.00   57.1    13   10.9   264     14.4    722.4 
 178   22:30   0.00   56.9    13   10.3   268     14.2    722.3 
 178   22:40   0.00   56.8    13   11.2   267     15.6    722.3 
 178   22:50   0.00   57.0    12   12.1   266     15.0    722.2 
 178   23:00   0.00   57.1    12   13.0   265     15.3    722.2 
 178   23:10   0.00   57.2    12   11.7   274     13.9    722.2 
 178   23:20   0.00   57.4    11   12.0   275     16.3    722.2 
 178   23:30   0.00   57.6    11   10.6   280     15.1    722.2 
 178   23:40   0.00   57.6    11   10.2   276     12.7    722.3 
 178   23:50   0.00   57.8    11   10.4   271     12.7    722.2 
 179    0:00   0.00   57.9    11    9.9   270     13.3    722.2 
 179    0:10   0.00   58.0    11    8.0   275     11.0    722.2 
 179    0:20   0.00   57.8    11    4.2   272      7.2    722.2 
 179    0:30   0.00   57.6    11    0.1   243      1.1    722.2 
 179    0:40   0.00   57.8    12    0.4   246      2.3    722.2 
 179    0:50   0.00   57.5    13    0.7   233      3.2    722.1 
 179    1:00   0.00   57.0    14    0.1   124      0.1    722.1 
 179    1:10   0.00   57.1    13    0.1   123      0.1    722.1 
 179    1:20   0.00   57.2    13    0.1   123      0.1    722.1 
 179    1:30   0.00   57.1    13    0.1   123      0.6    722.1 
 179    1:40   0.00   57.4    12    1.1   132      3.7    722.1 
 179    1:50   0.00   57.8    12    3.6   130      6.9    722.1 
 179    2:00   0.00   57.6    12    4.6   135      7.8    722.1 
 179    2:10   0.00   57.7    12    6.9   158      9.1    722.1 
 179    2:20   0.00   58.1    12    6.4   177      9.2    722.1 
 179    2:30   0.00   58.0    13    5.9   182      9.3    722.1 
 179    2:40   0.00   58.1    13    8.1   176     10.9    722.1 
 179    2:50   0.00   58.0    13    7.8   185     10.2    722.1 
 179    3:00   0.00   57.8    13    8.0   188     10.6    722.1 
 179    3:10   0.00   57.7    13    8.0   194      9.8    722.1 
 179    3:20   0.00   57.4    13    7.7   199      9.6    722.1 
 179    3:30   0.00   57.3    13    9.0   206     11.2    722.1 
 179    3:40   0.00   57.0    12    9.2   219     11.8    722.0 
 179    3:50   0.00   56.9    12    9.1   221     12.2    722.0 
 179    4:00   0.00   56.9    12    8.1   215     10.0    722.0 
 179    4:10   0.00   56.6    12    7.3   218      9.3    722.0 
 179    4:20   0.00   56.1    13    6.9   220      9.3    722.0 
 179    4:30   0.00   56.0    14    6.0   218      7.9    722.1 
 179    4:40   0.01   55.9    15    7.8   221     10.6    722.1 
 179    4:50   0.01   55.7    16    9.9   231     12.3    722.1 
 179    5:00   0.03   55.7    17    9.7   230     12.2    722.1 
 179    5:10   0.05   56.2    18    7.1   222     10.6    722.2 
 179    5:20   0.09   57.1    18    6.4   217      9.2    722.3 
 179    5:30   0.12   57.6    17    7.7   219     10.2    722.3 
 179    5:40   0.14   57.6    18    8.0   230     11.7    722.4 
 179    5:50   0.17   56.8    18    9.8   234     13.1    722.4 
 179    6:00   0.20   56.9    19   10.8   239     15.1    722.4 
 179    6:10   0.22   56.7    19   12.1   242     15.6    722.5 
 179    6:20   0.25   56.6    19   11.6   241     14.6    722.5 
 179    6:30   0.28   57.1    19    8.9   238     12.8    722.6 
 179    6:40   0.31   57.5    20    8.5   236     11.3    722.6 
 179    6:50   0.34   57.5    20    8.1   239     10.2    722.7 
 179    7:00   0.36   58.0    20    7.4   240     11.5    722.7 
 179    7:10   0.39   58.3    20    8.4   244     11.6    722.7 
 179    7:20   0.42   58.7    20    8.3   246     10.8    722.7 
 179    7:30   0.45   59.4    20    7.4   247     11.0    722.7 
 179    7:40   0.48   59.8    20    7.2   249     11.5    722.7 
 179    7:50   0.50   60.2    20    7.2   248      9.9    722.8 
 179    8:00   0.53   60.6    18    7.4   250     12.2    722.8 
 179    8:10   0.56   61.0    17    6.6   248     10.4    722.8 
 179    8:20   0.58   61.6    16    7.7   250     10.5    722.8 
 179    8:30   0.60   61.8    16    7.8   246     12.7    722.8 
 179    8:40   0.63   62.1    15    8.1   246     11.5    722.8 
 179    8:50   0.65   62.2    16    7.0   237     15.2    722.8 
 179    9:00   0.68   63.5    15    4.5   245     11.6    722.8 
 179    9:10   0.70   63.4    15    6.0   246     10.7    722.8 
 179    9:20   0.72   63.6    14    7.3   250     11.3    722.8 
 179    9:30   0.74   64.0    14    8.0   242     13.7    722.9 
 179    9:40   0.76   63.7    14    8.2   244     13.0    723.0 
 179    9:50   0.77   64.5    13    7.8   242     13.7    723.0 
 179   10:00   0.79   64.7    13    9.2   242     14.0    723.1 
 179   10:10   0.81   65.0    14    8.3   248     13.8    723.1 
 179   10:20   0.82   65.0    14    9.4   243     15.0    723.1 
 179   10:30   0.83   64.9    14    8.8   254     13.2    723.1 
 179   10:40   0.84   65.6    15    9.5   252     16.1    723.1 
 179   10:50   0.85   64.8    16   12.3   251     22.2    723.1 
 179   11:00   0.86   65.3    17   11.2   252     18.3    723.1 
 179   11:10   0.87   65.8    16   11.1   253     18.8    723.1 
 179   11:20   0.87   65.4    16   13.6   259     23.8    723.1 
 179   11:30   0.88   65.7    14   13.5   251     21.8    723.0 
 179   11:40   0.88   65.7    14   15.2   253     22.6    723.0 
 179   11:50   0.89   66.1    13   14.8   252     22.8    723.1 
 179   12:00   0.88   67.1    14   11.1   259     18.3    723.2 
 179   12:10   0.88   68.1    18    7.8   249     15.2    723.2 
 179   12:20   0.88   68.4    18   11.1   254     16.8    723.2 
 179   12:30   0.88   68.3    18   11.0   257     18.9    723.1 
 179   12:40   0.87   67.8    19   12.7   249     19.6    723.1 
 179   12:50   0.86   68.3    19   11.9   260     18.5    723.2 
 179   13:00   0.86   68.6    18   12.8   249     20.6    723.1 
 179   13:10   0.85   68.2    18   13.0   250     21.2    723.1 
 179   13:20   0.84   68.8    18   12.1   252     20.3    723.1 
 179   13:30   0.83   69.3    16   10.9   244     20.6    723.1 
 179   13:40   0.82   69.6    16   11.2   261     17.1    723.1 
 179   13:50   0.81   69.7    17   10.3   254     16.8    723.1 
 179   14:00   0.80   70.6    17    9.6   254     18.2    723.1 
 179   14:10   0.78   69.3    17   11.9   252     18.6    723.1 
 179   14:20   0.77   70.4    17    8.9   257     14.6    723.1 
 179   14:30   0.75   70.2    17   11.1   254     17.9    723.0 
 179   14:40   0.73   70.1    18   11.8   250     20.5    723.0 
 179   14:50   0.71   69.7    18   11.4   252     17.9    723.0 
 179   15:00   0.69   69.5    19   11.6   251     16.8    722.9 
 179   15:10   0.67   69.3    19   13.1   256     21.7    723.0 
 179   15:20   0.65   68.6    21   12.6   246     20.6    723.0 
 179   15:30   0.62   68.6    22   14.4   250     19.8    723.0 
 179   15:40   0.60   68.6    23   14.2   254     22.6    722.9 
 179   15:50   0.57   68.1    24   15.5   250     20.2    722.8 
 179   16:00   0.55   67.6    25   14.6   258     24.2    722.8 
 179   16:10   0.52   67.3    25   16.0   260     25.5    722.8 
 179   16:20   0.50   67.8    24   14.9   258     22.6    722.8 
 179   16:30   0.47   67.1    24   15.4   258     20.5    722.8 
 179   16:40   0.44   67.5    24   14.1   259     20.4    722.7 
 179   16:50   0.41   66.6    24   17.1   260     23.8    722.7 
 179   17:00   0.39   66.2    23   16.0   257     21.3    722.6 
 179   17:10   0.36   66.5    23   14.5   255     20.9    722.7 
 179   17:20   0.33   66.6    23   13.4   262     17.6    722.7 
 179   17:30   0.30   66.1    23   12.9   256     17.5    722.7 
 179   17:40   0.28   65.6    23   13.7   261     20.0    722.7 
 179   17:50   0.25   65.6    23   12.3   259     17.4    722.7 
 179   18:00   0.22   65.1    24   13.1   259     18.5    722.7 
 179   18:10   0.20   64.1    24   18.0   262     24.1    722.6 
 179   18:20   0.17   63.4    25   21.2   269     28.9    722.4 
 179   18:30   0.14   63.1    25   22.8   269     27.5    722.3 
 179   18:40   0.12   62.4    24   26.0   267     32.3    722.2 
 179   18:50   0.09   62.0    22   27.5   260     34.0    722.2 
 179   19:00   0.06   61.4    23   27.0   260     34.8    722.2 
 179   19:10   0.03   60.9    22   26.4   261     36.3    722.2 
 179   19:20   0.01   60.1    24   26.7   259     33.2    722.1 
 179   19:30   0.00   59.6    25   27.1   257     35.0    722.1 
 179   19:40   0.00   59.5    25   26.7   257     36.1    722.1 
 179   19:50   0.00   59.5    25   27.9   252     36.1    722.1 
 179   20:00   0.00   59.5    24   28.4   254     35.7    722.0 
 179   20:10   0.00   59.6    23   29.5   252     37.7    722.0 
 179   20:20   0.00   59.7    23   29.6   251     36.9    722.1 
 179   20:30   0.00   59.6    23   29.2   249     38.8    722.1 
 179   20:40   0.00   59.5    24   30.7   251     39.5    722.1 
 179   20:50   0.00   59.4    24   30.9   251     41.1    722.1 
 179   21:00   0.00   59.5    24   32.3   250     41.3    722.1 
 179   21:10   0.00   59.3    25   33.3   251     43.2    722.1 
 179   21:20   0.00   59.1    24   34.4   251     44.2    722.0 

Return to Slide Mountain graphs page.


Western Regional Climate Center,wrcc@dri.edu